PWSweather.com
Personal Weather Stations
Station Observations
AKOUDA4022
Sousse, AkoudaTN 4022

SousseAkoudaTN 4022

Lat: 35.881801, Lon: 10.566187

Elevation: 200

Station Type: TFA Nexus

http://www.soussewetter.de/meteo/

Latest ConditionsUpdated 4:10:00 PM GMT+01:01 Friday, Sep 22, 2017
Currently Today's Max Today's Min Today's Average
Temperature 80.1°F26.7°C 88.0°F31.1°C 68.5°F20.3°C 77.0°F25.0°C
Dew Point 62.9°F17.2°C 63.2°F17.3°C 55.7°F13.2°C 59.6°F15.3°C
Winds 6.2 mph WSW10.0 kmh WSW 6.8 mph ESE10.9 kmh ESE - 2.3 mph 3.7 kmh
Wind Gusts 6.8 mph10.9 kmh 15.1 mph24.3 kmh - -
Humidity 56% 65% 41% 56%
Pressure 30.22 in1023.4 mb 30.26 in1024.7 mb 30.20 in1022.7 mb -
Hour Temp Dew Point Humidity Winds Wind Gusts Pressure Precip Precip Rate Daily Precip Total
04:10 PM 80.1°F26.7°C 62.9°F17.2°C 56% 6.2 mph WSW10.0 kmh WSW 6.8 mph10.9 kmh 30.22 in1023.4 mb 0.00 in0.0 mm 0.00 in0.0 mm 0.00 in0.0 mm
04:00 PM 80.2°F26.8°C 62.6°F17.0°C 55% 6.3 mph ENE10.1 kmh ENE 5.3 mph8.5 kmh 30.21 in1023.0 mb 0.00 in0.0 mm 0.00 in0.0 mm 0.00 in0.0 mm
03:50 PM 80.4°F26.9°C 62.7°F17.1°C 55% 6.2 mph S10.0 kmh S 13.5 mph21.7 kmh 30.21 in1023.0 mb 0.00 in0.0 mm 0.00 in0.0 mm 0.00 in0.0 mm
03:40 PM 80.4°F26.9°C 62.7°F17.1°C 55% 5.6 mph SE9.0 kmh SE 7.4 mph11.9 kmh 30.21 in1023.0 mb 0.00 in0.0 mm 0.00 in0.0 mm 0.00 in0.0 mm
03:30 PM 80.6°F27.0°C 62.9°F17.2°C 55% 5.6 mph NE9.0 kmh NE 7.2 mph11.6 kmh 30.21 in1023.0 mb 0.00 in0.0 mm 0.00 in0.0 mm 0.00 in0.0 mm
03:20 PM 80.8°F27.1°C 62.6°F17.0°C 54% 5.7 mph ESE9.2 kmh ESE 6.5 mph10.5 kmh 30.20 in1022.7 mb 0.00 in0.0 mm 0.00 in0.0 mm 0.00 in0.0 mm
03:10 PM 80.6°F27.0°C 62.4°F16.9°C 54% 5.7 mph ESE9.2 kmh ESE 6.5 mph10.5 kmh 30.20 in1022.7 mb 0.00 in0.0 mm 0.00 in0.0 mm 0.00 in0.0 mm
03:00 PM 80.8°F27.1°C 62.0°F16.7°C 53% 5.9 mph SW9.5 kmh SW 4.7 mph7.6 kmh 30.21 in1023.0 mb 0.00 in0.0 mm 0.00 in0.0 mm 0.00 in0.0 mm
02:50 PM 81.1°F27.3°C 62.9°F17.2°C 54% 6.3 mph ESE10.1 kmh ESE 8.8 mph14.2 kmh 30.21 in1023.0 mb 0.00 in0.0 mm 0.00 in0.0 mm 0.00 in0.0 mm
02:40 PM 81.1°F27.3°C 62.9°F17.2°C 54% 6.8 mph ESE10.9 kmh ESE 11.5 mph18.5 kmh 30.22 in1023.4 mb 0.00 in0.0 mm 0.00 in0.0 mm 0.00 in0.0 mm
02:30 PM 81.5°F27.5°C 63.2°F17.3°C 54% 6.5 mph E10.5 kmh E 11.0 mph17.7 kmh 30.22 in1023.4 mb 0.00 in0.0 mm 0.00 in0.0 mm 0.00 in0.0 mm
02:20 PM 81.5°F27.5°C 62.7°F17.1°C 53% 6.1 mph ESE9.8 kmh ESE 8.7 mph14.0 kmh 30.22 in1023.4 mb 0.00 in0.0 mm 0.00 in0.0 mm 0.00 in0.0 mm
02:10 PM 81.5°F27.5°C 62.7°F17.1°C 53% 5.3 mph SE8.5 kmh SE 8.8 mph14.2 kmh 30.22 in1023.4 mb 0.00 in0.0 mm 0.00 in0.0 mm 0.00 in0.0 mm
02:00 PM 81.5°F27.5°C 62.7°F17.1°C 53% 5.4 mph W8.7 kmh W 7.0 mph11.3 kmh 30.22 in1023.4 mb 0.00 in0.0 mm 0.00 in0.0 mm 0.00 in0.0 mm
01:50 PM 81.7°F27.6°C 62.3°F16.8°C 52% 6.2 mph NW10.0 kmh NW 8.8 mph14.2 kmh 30.22 in1023.4 mb 0.00 in0.0 mm 0.00 in0.0 mm 0.00 in0.0 mm
01:40 PM 81.9°F27.7°C 62.5°F16.9°C 52% 5.9 mph SE9.5 kmh SE 9.1 mph14.6 kmh 30.22 in1023.4 mb 0.00 in0.0 mm 0.00 in0.0 mm 0.00 in0.0 mm
01:30 PM 82.0°F27.8°C 62.6°F17.0°C 52% 5.6 mph ESE9.0 kmh ESE 7.8 mph12.6 kmh 30.22 in1023.4 mb 0.00 in0.0 mm 0.00 in0.0 mm 0.00 in0.0 mm
01:20 PM 82.2°F27.9°C 62.8°F17.1°C 52% 6.7 mph ESE10.8 kmh ESE 15.1 mph24.3 kmh 30.23 in1023.7 mb 0.00 in0.0 mm 0.00 in0.0 mm 0.00 in0.0 mm
01:10 PM 82.8°F28.2°C 62.7°F17.1°C 51% 5.7 mph ENE9.2 kmh ENE 4.4 mph7.1 kmh 30.23 in1023.7 mb 0.00 in0.0 mm 0.00 in0.0 mm 0.00 in0.0 mm
01:00 PM 82.9°F28.3°C 62.9°F17.2°C 51% 6.1 mph W9.8 kmh W 9.1 mph14.6 kmh 30.24 in1024.0 mb 0.00 in0.0 mm 0.00 in0.0 mm 0.00 in0.0 mm
12:50 PM 82.9°F28.3°C 62.9°F17.2°C 51% 5.1 mph SSE8.2 kmh SSE 6.4 mph10.3 kmh 30.24 in1024.0 mb 0.00 in0.0 mm 0.00 in0.0 mm 0.00 in0.0 mm
12:40 PM 82.9°F28.3°C 62.4°F16.9°C 50% 4.8 mph ENE7.7 kmh ENE 5.6 mph9.0 kmh 30.24 in1024.0 mb 0.00 in0.0 mm 0.00 in0.0 mm 0.00 in0.0 mm
12:30 PM 82.9°F28.3°C 62.9°F17.2°C 51% 5.2 mph ENE8.4 kmh ENE 5.0 mph8.0 kmh 30.24 in1024.0 mb 0.00 in0.0 mm 0.00 in0.0 mm 0.00 in0.0 mm
12:20 PM 82.8°F28.2°C 62.2°F16.8°C 50% 4.8 mph ENE7.7 kmh ENE 6.1 mph9.8 kmh 30.25 in1024.4 mb 0.00 in0.0 mm 0.00 in0.0 mm 0.00 in0.0 mm
12:10 PM 82.9°F28.3°C 62.4°F16.9°C 50% 3.9 mph ENE6.3 kmh ENE 2.6 mph4.2 kmh 30.25 in1024.4 mb 0.00 in0.0 mm 0.00 in0.0 mm 0.00 in0.0 mm
12:00 PM 83.1°F28.4°C 62.5°F16.9°C 50% 4.3 mph SE6.9 kmh SE 5.6 mph9.0 kmh 30.25 in1024.4 mb 0.00 in0.0 mm 0.00 in0.0 mm 0.00 in0.0 mm
11:50 AM 83.3°F28.5°C 62.1°F16.7°C 49% 5.1 mph S8.2 kmh S 10.2 mph16.4 kmh 30.25 in1024.4 mb 0.00 in0.0 mm 0.00 in0.0 mm 0.00 in0.0 mm
11:40 AM 83.7°F28.7°C 62.4°F16.9°C 49% 4.0 mph E6.4 kmh E 5.7 mph9.2 kmh 30.25 in1024.4 mb 0.00 in0.0 mm 0.00 in0.0 mm 0.00 in0.0 mm
11:30 AM 84.0°F28.9°C 62.2°F16.8°C 48% 3.8 mph ESE6.1 kmh ESE 4.2 mph6.8 kmh 30.25 in1024.4 mb 0.00 in0.0 mm 0.00 in0.0 mm 0.00 in0.0 mm
11:20 AM 83.8°F28.8°C 62.6°F17.0°C 49% 4.1 mph ESE6.6 kmh ESE 7.8 mph12.6 kmh 30.25 in1024.4 mb 0.00 in0.0 mm 0.00 in0.0 mm 0.00 in0.0 mm
11:10 AM 84.6°F29.2°C 62.1°F16.7°C 47% 4.1 mph ESE6.6 kmh ESE 4.9 mph7.9 kmh 30.25 in1024.4 mb 0.00 in0.0 mm 0.00 in0.0 mm 0.00 in0.0 mm
11:00 AM 84.9°F29.4°C 61.8°F16.6°C 46% 3.7 mph ENE6.0 kmh ENE 6.4 mph10.3 kmh 30.26 in1024.7 mb 0.00 in0.0 mm 0.00 in0.0 mm 0.00 in0.0 mm
10:50 AM 86.5°F30.3°C 62.6°F17.0°C 45% 2.6 mph ENE4.2 kmh ENE 2.9 mph4.7 kmh 30.26 in1024.7 mb 0.00 in0.0 mm 0.00 in0.0 mm 0.00 in0.0 mm
10:40 AM 88.0°F31.1°C 62.6°F17.0°C 43% 2.0 mph NE3.2 kmh NE 3.0 mph4.8 kmh 30.26 in1024.7 mb 0.00 in0.0 mm 0.00 in0.0 mm 0.00 in0.0 mm
10:30 AM 87.8°F31.0°C 61.1°F16.2°C 41% 2.1 mph SSW3.4 kmh SSW 2.4 mph3.9 kmh 30.26 in1024.7 mb 0.00 in0.0 mm 0.00 in0.0 mm 0.00 in0.0 mm
10:20 AM 87.6°F30.9°C 61.6°F16.4°C 42% 2.3 mph WNW3.7 kmh WNW 4.3 mph6.9 kmh 30.26 in1024.7 mb 0.00 in0.0 mm 0.00 in0.0 mm 0.00 in0.0 mm
10:10 AM 87.4°F30.8°C 61.5°F16.4°C 42% 2.2 mph S3.5 kmh S 2.3 mph3.7 kmh 30.26 in1024.7 mb 0.00 in0.0 mm 0.00 in0.0 mm 0.00 in0.0 mm
09:50 AM 86.2°F30.1°C 61.7°F16.5°C 44% 1.4 mph ESE2.3 kmh ESE 2.6 mph4.2 kmh 30.26 in1024.7 mb 0.00 in0.0 mm 0.00 in0.0 mm 0.00 in0.0 mm
09:40 AM 85.1°F29.5°C 60.7°F15.9°C 44% 2.2 mph SW3.5 kmh SW 1.6 mph2.6 kmh 30.26 in1024.7 mb 0.00 in0.0 mm 0.00 in0.0 mm 0.00 in0.0 mm
09:30 AM 84.7°F29.3°C 61.0°F16.1°C 45% 2.5 mph NW4.0 kmh NW 2.1 mph3.4 kmh 30.26 in1024.7 mb 0.00 in0.0 mm 0.00 in0.0 mm 0.00 in0.0 mm
09:20 AM 84.4°F29.1°C 61.3°F16.3°C 46% 2.7 mph W4.3 kmh W 4.4 mph7.1 kmh 30.26 in1024.7 mb 0.00 in0.0 mm 0.00 in0.0 mm 0.00 in0.0 mm
09:10 AM 84.2°F29.0°C 61.7°F16.5°C 47% 2.7 mph NNW4.3 kmh NNW 4.5 mph7.2 kmh 30.26 in1024.7 mb 0.00 in0.0 mm 0.00 in0.0 mm 0.00 in0.0 mm
09:00 AM 84.0°F28.9°C 62.2°F16.8°C 48% 2.0 mph W3.2 kmh W 3.4 mph5.5 kmh 30.26 in1024.7 mb 0.00 in0.0 mm 0.00 in0.0 mm 0.00 in0.0 mm
08:50 AM 83.8°F28.8°C 63.2°F17.3°C 50% 1.3 mph WSW2.1 kmh WSW 3.0 mph4.8 kmh 30.26 in1024.7 mb 0.00 in0.0 mm 0.00 in0.0 mm 0.00 in0.0 mm
08:40 AM 83.1°F28.4°C 62.5°F16.9°C 50% 1.1 mph S1.8 kmh S -- 30.25 in1024.4 mb 0.00 in0.0 mm 0.00 in0.0 mm 0.00 in0.0 mm
08:30 AM 82.4°F28.0°C 61.9°F16.6°C 50% 1.3 mph SSW2.1 kmh SSW 1.0 mph1.6 kmh 30.25 in1024.4 mb 0.00 in0.0 mm 0.00 in0.0 mm 0.00 in0.0 mm
08:20 AM 81.7°F27.6°C 61.8°F16.6°C 51% 0.9 mph WSW1.4 kmh WSW 1.3 mph2.1 kmh 30.25 in1024.4 mb 0.00 in0.0 mm 0.00 in0.0 mm 0.00 in0.0 mm
08:10 AM 80.8°F27.1°C 61.5°F16.4°C 52% 0.8 mph S1.3 kmh S 1.6 mph2.6 kmh 30.25 in1024.4 mb 0.00 in0.0 mm 0.00 in0.0 mm 0.00 in0.0 mm
08:00 AM 79.9°F26.6°C 61.2°F16.2°C 53% 0.1 mph SW0.2 kmh SW -- 30.24 in1024.0 mb 0.00 in0.0 mm 0.00 in0.0 mm 0.00 in0.0 mm
07:50 AM 78.6°F25.9°C 60.6°F15.9°C 54% 0.7 mph NW1.1 kmh NW 1.9 mph3.1 kmh 30.24 in1024.0 mb 0.00 in0.0 mm 0.00 in0.0 mm 0.00 in0.0 mm
07:40 AM 77.9°F25.5°C 60.4°F15.8°C 55% 0.9 mph WNW1.4 kmh WNW -- 30.24 in1024.0 mb 0.00 in0.0 mm 0.00 in0.0 mm 0.00 in0.0 mm
07:30 AM 76.6°F24.8°C 59.7°F15.4°C 56% 0.7 mph SSE1.1 kmh SSE 1.1 mph1.8 kmh 30.24 in1024.0 mb 0.00 in0.0 mm 0.00 in0.0 mm 0.00 in0.0 mm
07:20 AM 75.6°F24.2°C 59.7°F15.4°C 58% 0.4 mph SW0.6 kmh SW 1.2 mph1.9 kmh 30.24 in1024.0 mb 0.00 in0.0 mm 0.00 in0.0 mm 0.00 in0.0 mm
07:10 AM 74.3°F23.5°C 59.0°F15.0°C 59% 0.5 mph W0.8 kmh W 1.1 mph1.8 kmh 30.24 in1024.0 mb 0.00 in0.0 mm 0.00 in0.0 mm 0.00 in0.0 mm
07:00 AM 72.9°F22.7°C 58.6°F14.8°C 61% 0.1 mph W0.2 kmh W -- 30.23 in1023.7 mb 0.00 in0.0 mm 0.00 in0.0 mm 0.00 in0.0 mm
06:50 AM 71.6°F22.0°C 57.9°F14.4°C 62% 0.2 mph NNW0.3 kmh NNW -- 30.23 in1023.7 mb 0.00 in0.0 mm 0.00 in0.0 mm 0.00 in0.0 mm
06:40 AM 70.3°F21.3°C 57.6°F14.2°C 64% 1.2 mph WSW1.9 kmh WSW -- 30.23 in1023.7 mb 0.00 in0.0 mm 0.00 in0.0 mm 0.00 in0.0 mm
06:30 AM 69.4°F20.8°C 56.7°F13.7°C 64% 1.0 mph NW1.6 kmh NW 1.3 mph2.1 kmh 30.23 in1023.7 mb 0.00 in0.0 mm 0.00 in0.0 mm 0.00 in0.0 mm
06:20 AM 68.7°F20.4°C 56.5°F13.6°C 65% 0.5 mph NW0.8 kmh NW 1.6 mph2.6 kmh 30.24 in1024.0 mb 0.00 in0.0 mm 0.00 in0.0 mm 0.00 in0.0 mm
06:10 AM 68.5°F20.3°C 56.3°F13.5°C 65% 0.9 mph S1.4 kmh S 1.1 mph1.8 kmh 30.24 in1024.0 mb 0.00 in0.0 mm 0.00 in0.0 mm 0.00 in0.0 mm
06:00 AM 68.5°F20.3°C 56.3°F13.5°C 65% 0.9 mph W1.4 kmh W 1.0 mph1.6 kmh 30.24 in1024.0 mb 0.00 in0.0 mm 0.00 in0.0 mm 0.00 in0.0 mm
05:50 AM 68.7°F20.4°C 56.5°F13.6°C 65% 0.5 mph SW0.8 kmh SW 1.5 mph2.4 kmh 30.24 in1024.0 mb 0.00 in0.0 mm 0.00 in0.0 mm 0.00 in0.0 mm
05:40 AM 68.5°F20.3°C 55.9°F13.3°C 64% 0.3 mph SW0.5 kmh SW 1.3 mph2.1 kmh 30.24 in1024.0 mb 0.00 in0.0 mm 0.00 in0.0 mm 0.00 in0.0 mm
05:30 AM 68.7°F20.4°C 56.0°F13.3°C 64% 0.5 mph WSW0.8 kmh WSW 1.4 mph2.3 kmh 30.24 in1024.0 mb 0.00 in0.0 mm 0.00 in0.0 mm 0.00 in0.0 mm
05:20 AM 68.9°F20.5°C 56.2°F13.4°C 64% 1.1 mph SW1.8 kmh SW 1.2 mph1.9 kmh 30.24 in1024.0 mb 0.00 in0.0 mm 0.00 in0.0 mm 0.00 in0.0 mm
05:10 AM 68.9°F20.5°C 55.8°F13.2°C 63% 0.9 mph WSW1.4 kmh WSW 1.4 mph2.3 kmh 30.24 in1024.0 mb 0.00 in0.0 mm 0.00 in0.0 mm 0.00 in0.0 mm
05:00 AM 69.1°F20.6°C 55.9°F13.3°C 63% 0.3 mph W0.5 kmh W 1.0 mph1.6 kmh 30.24 in1024.0 mb 0.00 in0.0 mm 0.00 in0.0 mm 0.00 in0.0 mm
04:50 AM 69.3°F20.7°C 56.1°F13.4°C 63% 0.1 mph SSE0.2 kmh SSE -- 30.24 in1024.0 mb 0.00 in0.0 mm 0.00 in0.0 mm 0.00 in0.0 mm
04:40 AM 69.3°F20.7°C 56.1°F13.4°C 63% 0.1 mph WSW0.2 kmh WSW 1.1 mph1.8 kmh 30.23 in1023.7 mb 0.00 in0.0 mm 0.00 in0.0 mm 0.00 in0.0 mm
04:30 AM 69.3°F20.7°C 55.7°F13.2°C 62% 0.3 mph S0.5 kmh S 1.2 mph1.9 kmh 30.23 in1023.7 mb 0.00 in0.0 mm 0.00 in0.0 mm 0.00 in0.0 mm
04:20 AM 69.4°F20.8°C 55.8°F13.2°C 62% 1.1 mph SW1.8 kmh SW 1.7 mph2.7 kmh 30.24 in1024.0 mb 0.00 in0.0 mm 0.00 in0.0 mm 0.00 in0.0 mm
04:10 AM 69.6°F20.9°C 56.0°F13.3°C 62% 0.9 mph SW1.4 kmh SW 1.2 mph1.9 kmh 30.24 in1024.0 mb 0.00 in0.0 mm 0.00 in0.0 mm 0.00 in0.0 mm
04:00 AM 69.6°F20.9°C 56.0°F13.3°C 62% 0.6 mph WNW1.0 kmh WNW -- 30.24 in1024.0 mb 0.00 in0.0 mm 0.00 in0.0 mm 0.00 in0.0 mm
03:50 AM 69.8°F21.0°C 56.2°F13.4°C 62% 0.8 mph WSW1.3 kmh WSW 1.1 mph1.8 kmh 30.24 in1024.0 mb 0.00 in0.0 mm 0.00 in0.0 mm 0.00 in0.0 mm
03:40 AM 69.8°F21.0°C 56.2°F13.4°C 62% 1.0 mph SW1.6 kmh SW 1.3 mph2.1 kmh 30.24 in1024.0 mb 0.00 in0.0 mm 0.00 in0.0 mm 0.00 in0.0 mm
03:30 AM 70.0°F21.1°C 55.9°F13.3°C 61% 1.0 mph WSW1.6 kmh WSW 1.7 mph2.7 kmh 30.24 in1024.0 mb 0.00 in0.0 mm 0.00 in0.0 mm 0.00 in0.0 mm
03:20 AM 70.0°F21.1°C 55.9°F13.3°C 61% 0.6 mph WSW1.0 kmh WSW 1.4 mph2.3 kmh 30.24 in1024.0 mb 0.00 in0.0 mm 0.00 in0.0 mm 0.00 in0.0 mm
03:10 AM 70.2°F21.2°C 56.1°F13.4°C 61% 0.3 mph WSW0.5 kmh WSW -- 30.24 in1024.0 mb 0.00 in0.0 mm 0.00 in0.0 mm 0.00 in0.0 mm
03:00 AM 70.2°F21.2°C 56.1°F13.4°C 61% 0.4 mph SW0.6 kmh SW 1.5 mph2.4 kmh 30.24 in1024.0 mb 0.00 in0.0 mm 0.00 in0.0 mm 0.00 in0.0 mm
02:50 AM 70.3°F21.3°C 56.2°F13.4°C 61% 0.1 mph NW0.2 kmh NW 1.1 mph1.8 kmh 30.24 in1024.0 mb 0.00 in0.0 mm 0.00 in0.0 mm 0.00 in0.0 mm
02:40 AM 70.5°F21.4°C 56.4°F13.6°C 61% 0.3 mph WSW0.5 kmh WSW 1.0 mph1.6 kmh 30.24 in1024.0 mb 0.00 in0.0 mm 0.00 in0.0 mm 0.00 in0.0 mm
02:30 AM 70.7°F21.5°C 56.6°F13.7°C 61% 0.1 mph W0.2 kmh W 1.1 mph1.8 kmh 30.24 in1024.0 mb 0.00 in0.0 mm 0.00 in0.0 mm 0.00 in0.0 mm
02:20 AM 70.7°F21.5°C 56.6°F13.7°C 61% 0.1 mph SW0.2 kmh SW 1.1 mph1.8 kmh 30.24 in1024.0 mb 0.00 in0.0 mm 0.00 in0.0 mm 0.00 in0.0 mm
02:10 AM 70.7°F21.5°C 56.6°F13.7°C 61% 0.1 mph W0.2 kmh W -- 30.24 in1024.0 mb 0.00 in0.0 mm 0.00 in0.0 mm 0.00 in0.0 mm
02:00 AM 70.9°F21.6°C 56.7°F13.7°C 61% Calm Calm -- 30.24 in1024.0 mb 0.00 in0.0 mm 0.00 in0.0 mm 0.00 in0.0 mm
01:50 AM 71.1°F21.7°C 56.9°F13.8°C 61% Calm Calm -- 30.24 in1024.0 mb 0.00 in0.0 mm 0.00 in0.0 mm 0.00 in0.0 mm
01:40 AM 71.1°F21.7°C 56.5°F13.6°C 60% Calm Calm -- 30.25 in1024.4 mb 0.00 in0.0 mm 0.00 in0.0 mm 0.00 in0.0 mm
01:30 AM 71.2°F21.8°C 56.6°F13.7°C 60% Calm Calm -- 30.25 in1024.4 mb 0.00 in0.0 mm 0.00 in0.0 mm 0.00 in0.0 mm
01:20 AM 71.2°F21.8°C 56.6°F13.7°C 60% Calm Calm -- 30.25 in1024.4 mb 0.00 in0.0 mm 0.00 in0.0 mm 0.00 in0.0 mm
01:08 AM 71.4°F21.9°C 56.8°F13.8°C 60% Calm Calm -- 30.25 in1024.4 mb 0.00 in0.0 mm 0.00 in0.0 mm 0.00 in0.0 mm
01:00 AM 71.4°F21.9°C 56.8°F13.8°C 60% Calm Calm -- 30.26 in1024.7 mb 0.00 in0.0 mm 0.00 in0.0 mm 0.00 in0.0 mm
12:50 AM 71.4°F21.9°C 56.8°F13.8°C 60% Calm Calm -- 30.26 in1024.7 mb 0.00 in0.0 mm 0.00 in0.0 mm 0.00 in0.0 mm
12:40 AM 71.4°F21.9°C 56.8°F13.8°C 60% Calm Calm -- 30.26 in1024.7 mb 0.00 in0.0 mm 0.00 in0.0 mm 0.00 in0.0 mm
12:30 AM 71.6°F22.0°C 56.5°F13.6°C 59% Calm Calm -- 30.26 in1024.7 mb 0.00 in0.0 mm 0.00 in0.0 mm 0.00 in0.0 mm
12:20 AM 71.8°F22.1°C 56.7°F13.7°C 59% Calm Calm -- 30.26 in1024.7 mb 0.00 in0.0 mm 0.00 in0.0 mm 0.00 in0.0 mm
12:10 AM 71.8°F22.1°C 56.7°F13.7°C 59% Calm Calm -- 30.26 in1024.7 mb 0.00 in0.0 mm 0.00 in0.0 mm 0.00 in0.0 mm
12:00 AM 71.8°F22.1°C 56.7°F13.7°C 59% Calm Calm -- 30.26 in1024.7 mb 0.00 in0.0 mm 0.00 in0.0 mm 0.00 in0.0 mm